createdAt,value
2023-01-21T00:01:07.583Z,4.36
2023-01-21T00:02:42.163Z,4.31
2023-01-21T00:04:15.282Z,4.20
2023-01-21T00:05:48.531Z,4.20
2023-01-21T00:07:21.783Z,4.20
2023-01-21T00:08:55.192Z,4.21
2023-01-21T00:10:28.417Z,4.22
2023-01-21T00:12:03.087Z,4.21
2023-01-21T00:13:36.132Z,4.26
2023-01-21T00:15:09.983Z,4.26
2023-01-21T00:16:44.456Z,4.32
2023-01-21T00:18:17.696Z,4.35
2023-01-21T00:19:50.881Z,4.37
2023-01-21T00:21:24.562Z,4.36
2023-01-21T00:22:57.796Z,4.40
2023-01-21T00:24:29.986Z,4.45
2023-01-21T00:26:05.433Z,4.45
2023-01-21T00:27:39.728Z,4.39
2023-01-21T00:29:12.907Z,4.47
2023-01-21T00:30:45.192Z,4.46
2023-01-21T00:32:20.341Z,4.50
2023-01-21T00:33:53.804Z,4.45
2023-01-21T00:35:26.943Z,4.45
2023-01-21T00:37:00.149Z,4.42
2023-01-21T00:38:33.557Z,4.33
2023-01-21T00:40:08.325Z,4.35
2023-01-21T00:41:41.631Z,4.32
2023-01-21T00:43:15.069Z,4.30
2023-01-21T00:44:48.162Z,4.24
2023-01-21T00:46:21.499Z,4.20
2023-01-21T00:47:56.281Z,4.19
2023-01-21T00:49:29.499Z,4.18
2023-01-21T00:51:02.752Z,4.16
2023-01-21T00:52:36.160Z,4.13
2023-01-21T00:54:09.397Z,4.13
2023-01-21T00:55:42.641Z,4.07
2023-01-21T00:57:16.324Z,4.08
2023-01-21T00:58:48.689Z,4.07
2023-01-21T01:00:22.254Z,4.09
2023-01-21T01:01:55.531Z,4.11
2023-01-21T01:03:29.093Z,4.15
2023-01-21T01:05:02.268Z,4.16
2023-01-21T01:06:36.151Z,4.20
2023-01-21T01:08:09.387Z,4.20
2023-01-21T01:09:42.512Z,4.10
2023-01-21T01:11:15.887Z,3.97
2023-01-21T01:12:48.078Z,3.87
2023-01-21T01:14:21.336Z,3.83
2023-01-21T01:15:56.152Z,3.81
2023-01-21T01:17:29.429Z,3.83
2023-01-21T01:19:04.197Z,3.83
2023-01-21T01:20:37.461Z,3.78
2023-01-21T01:22:10.512Z,3.82
2023-01-21T01:23:44.675Z,3.82
2023-01-21T01:25:17.972Z,3.86
2023-01-21T01:26:51.135Z,3.90
2023-01-21T01:28:23.324Z,3.97
2023-01-21T01:29:56.533Z,4.02
2023-01-21T01:31:29.841Z,4.04
2023-01-21T01:33:03.351Z,4.05
2023-01-21T01:34:38.534Z,4.02
2023-01-21T01:36:13.421Z,3.97
2023-01-21T01:37:46.731Z,3.94
2023-01-21T01:39:19.927Z,3.94
2023-01-21T01:40:53.816Z,3.94
2023-01-21T01:42:27.032Z,3.98
2023-01-21T01:44:01.964Z,3.92
2023-01-21T01:45:35.680Z,3.92
2023-01-21T01:47:08.915Z,3.89
2023-01-21T01:48:44.281Z,3.94
2023-01-21T01:50:20.036Z,3.95
2023-01-21T01:51:57.516Z,3.97
2023-01-21T01:53:32.114Z,3.95
2023-01-21T01:55:06.953Z,3.97
2023-01-21T01:56:44.021Z,3.98
2023-01-21T01:58:19.527Z,3.97
2023-01-21T01:59:52.822Z,4.01
2023-01-21T02:01:26.278Z,3.96
2023-01-21T02:03:17.320Z,3.94
2023-01-21T02:04:54.976Z,3.88
2023-01-21T02:06:29.673Z,3.79
2023-01-21T02:08:03.581Z,3.80
2023-01-21T02:09:36.970Z,3.75
2023-01-21T02:11:12.834Z,3.75
2023-01-21T02:12:46.337Z,3.67
2023-01-21T02:14:19.723Z,3.68
2023-01-21T02:16:04.589Z,3.71
2023-01-21T02:17:52.803Z,3.72
2023-01-21T02:19:56.092Z,3.73
2023-01-21T02:21:51.331Z,3.75
2023-01-21T02:23:37.932Z,3.77
2023-01-21T02:25:56.581Z,3.78
2023-01-21T02:27:48.834Z,3.78
2023-01-21T02:30:13.087Z,3.77
2023-01-21T02:32:02.006Z,3.79
2023-01-21T02:33:52.948Z,3.75
2023-01-21T02:35:31.891Z,3.58
2023-01-21T02:37:11.072Z,3.47
2023-01-21T02:38:53.670Z,3.41
2023-01-21T02:40:39.119Z,3.31
2023-01-21T02:42:17.575Z,3.24
2023-01-21T02:43:58.443Z,3.26
2023-01-21T02:45:39.409Z,3.26
2023-01-21T02:47:19.014Z,3.28
2023-01-21T02:48:58.444Z,3.29
2023-01-21T02:50:35.507Z,3.20
2023-01-21T02:52:07.832Z,3.17
2023-01-21T02:53:41.157Z,3.19
2023-01-21T02:55:18.144Z,3.17
2023-01-21T02:56:51.265Z,3.19
2023-01-21T02:58:29.164Z,3.23
2023-01-21T03:00:06.108Z,3.24
2023-01-21T03:01:52.311Z,3.26
2023-01-21T03:03:56.524Z,3.25
2023-01-21T03:05:44.299Z,3.25
2023-01-21T03:07:24.147Z,3.26
2023-01-21T03:09:02.193Z,3.26
2023-01-21T03:10:41.804Z,3.21
2023-01-21T03:12:27.040Z,3.25
2023-01-21T03:14:23.856Z,3.12
2023-01-21T03:16:16.387Z,3.17
2023-01-21T03:17:56.936Z,3.23
2023-01-21T03:19:38.468Z,3.24
2023-01-21T03:21:16.594Z,3.18
2023-01-21T03:22:53.814Z,3.10
2023-01-21T03:24:26.414Z,3.04
2023-01-21T03:26:01.761Z,3.00
2023-01-21T03:27:36.448Z,2.97
2023-01-21T03:29:17.823Z,2.98
2023-01-21T03:30:56.740Z,3.00
2023-01-21T03:32:33.087Z,3.03
2023-01-21T03:34:08.639Z,3.06
2023-01-21T03:35:46.757Z,3.07
2023-01-21T03:37:28.088Z,3.08
2023-01-21T03:39:06.875Z,3.07
2023-01-21T03:40:44.489Z,3.05
2023-01-21T03:42:17.728Z,3.04
2023-01-21T03:43:50.892Z,3.03
2023-01-21T03:45:34.213Z,3.01
2023-01-21T03:47:17.871Z,2.94
2023-01-21T03:48:56.859Z,2.89
2023-01-21T03:50:37.330Z,2.75
2023-01-21T03:52:14.843Z,2.71
2023-01-21T03:53:52.886Z,2.75
2023-01-21T03:55:26.233Z,2.74
2023-01-21T03:56:58.568Z,2.76
2023-01-21T03:58:32.349Z,2.77
2023-01-21T04:00:06.351Z,2.79
2023-01-21T04:01:39.594Z,2.79
2023-01-21T04:03:12.898Z,2.73
2023-01-21T04:04:46.105Z,2.62
2023-01-21T04:06:21.523Z,2.47
2023-01-21T04:07:56.004Z,2.27
2023-01-21T04:09:28.455Z,2.17
2023-01-21T04:11:01.718Z,2.18
2023-01-21T04:12:35.012Z,2.15
2023-01-21T04:14:08.284Z,2.12
2023-01-21T04:15:41.963Z,2.03
2023-01-21T04:17:15.217Z,2.01
2023-01-21T04:18:48.737Z,2.05
2023-01-21T04:20:21.845Z,2.12
2023-01-21T04:21:55.265Z,2.15
2023-01-21T04:23:29.997Z,2.17
2023-01-21T04:25:02.240Z,2.21
2023-01-21T04:26:35.350Z,2.23
2023-01-21T04:28:08.708Z,2.26
2023-01-21T04:29:40.968Z,2.23
2023-01-21T04:31:14.197Z,2.32
2023-01-21T04:32:47.559Z,2.35
2023-01-21T04:34:21.192Z,2.41
2023-01-21T04:35:58.545Z,2.43
2023-01-21T04:37:31.805Z,2.35
2023-01-21T04:39:06.370Z,2.33
2023-01-21T04:40:39.916Z,2.30
2023-01-21T04:42:13.101Z,2.28
2023-01-21T04:43:45.476Z,2.26
2023-01-21T04:45:18.598Z,2.25
2023-01-21T04:46:51.940Z,2.24
2023-01-21T04:48:25.385Z,2.22
2023-01-21T04:49:58.647Z,2.23
2023-01-21T04:51:30.847Z,2.30
2023-01-21T04:53:04.079Z,2.25
2023-01-21T04:54:38.768Z,2.25
2023-01-21T04:56:11.962Z,2.25
2023-01-21T04:57:45.035Z,2.27
2023-01-21T04:59:18.396Z,2.31
2023-01-21T05:00:52.132Z,2.30
2023-01-21T05:02:25.530Z,2.25
2023-01-21T05:03:58.662Z,2.21
2023-01-21T05:05:31.966Z,2.16
2023-01-21T05:07:05.506Z,2.13
2023-01-21T05:08:38.798Z,2.02
2023-01-21T05:10:16.791Z,1.95
2023-01-21T05:11:50.322Z,1.98
2023-01-21T05:13:23.532Z,1.99
2023-01-21T05:14:57.812Z,2.00
2023-01-21T05:16:31.002Z,2.00
2023-01-21T05:18:04.333Z,2.02
2023-01-21T05:19:37.697Z,2.05
2023-01-21T05:21:09.973Z,2.03
2023-01-21T05:22:43.104Z,2.08
2023-01-21T05:24:16.519Z,2.13
2023-01-21T05:25:51.517Z,2.16
2023-01-21T05:27:24.796Z,2.20
2023-01-21T05:28:57.874Z,2.20
2023-01-21T05:30:31.253Z,2.21
2023-01-21T05:32:04.593Z,2.20
2023-01-21T05:33:37.988Z,2.23
2023-01-21T05:35:13.970Z,2.26
2023-01-21T05:36:47.513Z,2.26
2023-01-21T05:38:20.916Z,2.27
2023-01-21T05:39:54.180Z,2.26
2023-01-21T05:41:28.698Z,2.26
2023-01-21T05:43:02.080Z,2.24
2023-01-21T05:44:35.343Z,2.27
2023-01-21T05:46:08.592Z,2.27
2023-01-21T05:47:41.790Z,2.27
2023-01-21T05:49:15.231Z,2.27
2023-01-21T05:50:48.898Z,2.24
2023-01-21T05:52:22.268Z,2.24
2023-01-21T05:53:55.557Z,2.33
2023-01-21T05:55:28.809Z,2.39
2023-01-21T05:57:02.391Z,2.43
2023-01-21T05:58:35.703Z,2.48
2023-01-21T06:00:10.107Z,2.54
2023-01-21T06:01:42.393Z,2.55
2023-01-21T06:03:16.251Z,2.56
2023-01-21T06:04:48.504Z,2.58
2023-01-21T06:06:22.358Z,2.57
2023-01-21T06:07:55.614Z,2.55
2023-01-21T06:09:28.700Z,2.59
2023-01-21T06:11:02.045Z,2.61
2023-01-21T06:12:36.548Z,2.64
2023-01-21T06:14:09.968Z,2.66
2023-01-21T06:15:43.295Z,2.72
2023-01-21T06:17:15.494Z,2.73
2023-01-21T06:18:48.615Z,2.69
2023-01-21T06:20:22.043Z,2.72
2023-01-21T06:21:55.375Z,2.70
2023-01-21T06:23:28.866Z,2.65
2023-01-21T06:25:00.948Z,2.67
2023-01-21T06:26:34.932Z,2.69
2023-01-21T06:28:11.590Z,2.75
2023-01-21T06:29:45.056Z,2.75
2023-01-21T06:31:18.224Z,2.78
2023-01-21T06:32:51.686Z,2.82
2023-01-21T06:34:24.825Z,2.84
2023-01-21T06:35:58.049Z,2.81
2023-01-21T06:37:31.359Z,2.89
2023-01-21T06:39:04.848Z,2.90
2023-01-21T06:40:38.469Z,2.91
2023-01-21T06:42:11.728Z,3.00
2023-01-21T06:43:46.206Z,3.04
2023-01-21T06:45:19.523Z,3.09
2023-01-21T06:47:00.801Z,3.17
2023-01-21T06:48:34.477Z,3.24
2023-01-21T06:50:08.215Z,3.30
2023-01-21T06:51:41.675Z,3.36
2023-01-21T06:53:15.009Z,3.45
2023-01-21T06:54:48.331Z,3.48
2023-01-21T06:56:22.480Z,3.54
2023-01-21T06:57:55.753Z,3.63
2023-01-21T06:59:30.347Z,3.71
2023-01-21T07:01:03.637Z,3.64
2023-01-21T07:02:36.852Z,3.72
2023-01-21T07:04:10.186Z,3.77
2023-01-21T07:05:43.746Z,3.86
2023-01-21T07:07:16.981Z,3.92
2023-01-21T07:08:50.369Z,3.93
2023-01-21T07:10:24.008Z,4.16
2023-01-21T07:11:57.257Z,4.20
2023-01-21T07:13:30.456Z,4.28
2023-01-21T07:15:05.834Z,4.36
2023-01-21T07:16:38.315Z,4.43
2023-01-21T07:18:11.686Z,4.45
2023-01-21T07:19:44.845Z,4.45
2023-01-21T07:21:17.988Z,4.43
2023-01-21T07:22:51.227Z,4.43
2023-01-21T07:24:24.618Z,4.40
2023-01-21T07:25:58.041Z,4.42
2023-01-21T07:27:31.131Z,4.69
2023-01-21T07:29:05.140Z,5.15
2023-01-21T07:30:39.904Z,5.69
2023-01-21T07:32:13.178Z,6.25
2023-01-21T07:33:46.265Z,6.74
2023-01-21T07:35:20.357Z,6.91
2023-01-21T07:36:53.595Z,7.38
2023-01-21T07:38:26.788Z,7.32
2023-01-21T07:39:59.858Z,7.40
2023-01-21T07:41:33.870Z,7.90
2023-01-21T07:43:06.995Z,8.04
2023-01-21T07:44:40.432Z,8.22
2023-01-21T07:46:17.242Z,8.41
2023-01-21T07:47:51.185Z,8.35
2023-01-21T07:49:24.413Z,7.97
2023-01-21T07:50:59.032Z,7.70
2023-01-21T07:52:33.087Z,7.45
2023-01-21T07:54:07.000Z,7.31
2023-01-21T07:55:40.309Z,7.08
2023-01-21T07:57:13.473Z,6.81
2023-01-21T07:58:47.165Z,6.72
2023-01-21T08:00:21.308Z,6.61
2023-01-21T08:01:55.890Z,6.61
2023-01-21T08:03:29.153Z,6.66
2023-01-21T08:05:02.361Z,6.69
2023-01-21T08:06:37.902Z,6.61
2023-01-21T08:08:10.994Z,6.51
2023-01-21T08:09:44.167Z,6.50
2023-01-21T08:11:17.347Z,6.49
2023-01-21T08:12:50.904Z,6.57
2023-01-21T08:14:24.027Z,6.60
2023-01-21T08:15:58.006Z,6.54
2023-01-21T08:17:32.493Z,6.57
2023-01-21T08:19:06.556Z,6.57
2023-01-21T08:20:39.678Z,6.43
2023-01-21T08:22:12.874Z,6.44
2023-01-21T08:23:46.033Z,6.51
2023-01-21T08:25:19.547Z,6.56
2023-01-21T08:26:52.761Z,6.64
2023-01-21T08:28:25.929Z,6.47
2023-01-21T08:29:59.006Z,6.51
2023-01-21T08:31:32.444Z,6.71
2023-01-21T08:33:06.980Z,7.19
2023-01-21T08:34:40.191Z,7.69
2023-01-21T08:36:13.350Z,7.99
2023-01-21T08:37:46.842Z,8.02
2023-01-21T08:39:20.254Z,8.06
2023-01-21T08:40:53.489Z,8.38
2023-01-21T08:42:26.598Z,9.07
2023-01-21T08:44:00.404Z,9.65
2023-01-21T08:45:33.565Z,10.01
2023-01-21T08:47:06.849Z,10.48
2023-01-21T08:48:41.409Z,10.92
2023-01-21T08:50:15.152Z,11.40
2023-01-21T08:51:48.351Z,11.93
2023-01-21T08:53:21.946Z,12.45
2023-01-21T08:54:55.227Z,13.05
2023-01-21T08:56:29.017Z,13.65
2023-01-21T08:58:02.128Z,14.11
2023-01-21T08:59:35.347Z,14.40
2023-01-21T09:01:09.426Z,14.71
2023-01-21T09:02:43.294Z,15.00
2023-01-21T09:04:18.188Z,15.39
2023-01-21T09:05:52.177Z,15.74
2023-01-21T09:07:25.372Z,16.09
2023-01-21T09:08:59.544Z,16.21
2023-01-21T09:10:49.778Z,16.30
2023-01-21T09:12:22.926Z,16.16
2023-01-21T09:13:58.039Z,15.81
2023-01-21T09:15:31.538Z,15.99
2023-01-21T09:17:04.631Z,16.28
2023-01-21T09:18:36.919Z,16.34
2023-01-21T09:20:13.087Z,16.24
2023-01-21T09:21:46.440Z,16.24
2023-01-21T09:23:25.760Z,16.24
2023-01-21T09:24:58.952Z,16.11
2023-01-21T09:26:32.086Z,16.25
2023-01-21T09:28:05.708Z,16.11
2023-01-21T09:29:38.773Z,15.82
2023-01-21T09:31:13.758Z,15.54
2023-01-21T09:32:46.839Z,15.44
2023-01-21T09:34:20.811Z,15.31
2023-01-21T09:35:56.438Z,15.44
2023-01-21T09:37:30.079Z,15.72
2023-01-21T09:39:03.594Z,16.01
2023-01-21T09:40:37.856Z,16.15
2023-01-21T09:42:19.535Z,16.30
2023-01-21T09:44:00.391Z,16.52
2023-01-21T09:45:33.624Z,16.46
2023-01-21T09:47:18.137Z,16.31
2023-01-21T09:48:55.474Z,15.89
2023-01-21T09:50:28.700Z,15.65
2023-01-21T09:52:10.592Z,15.26
2023-01-21T09:53:50.682Z,15.01
2023-01-21T09:55:29.647Z,14.75
2023-01-21T09:57:25.051Z,14.60
2023-01-21T09:59:05.220Z,14.58
2023-01-21T10:00:46.714Z,14.52
2023-01-21T10:02:28.889Z,14.45
2023-01-21T10:04:16.769Z,14.30
2023-01-21T10:06:09.716Z,14.22
2023-01-21T10:07:51.808Z,14.29
2023-01-21T10:09:42.949Z,14.32
2023-01-21T10:11:30.297Z,14.21
2023-01-21T10:13:25.347Z,14.22
2023-01-21T10:15:29.614Z,14.31
2023-01-21T10:17:08.295Z,14.25
2023-01-21T10:18:45.331Z,14.22
2023-01-21T10:20:24.042Z,14.16
2023-01-21T10:22:02.725Z,14.13
2023-01-21T10:23:43.128Z,14.02
2023-01-21T10:25:21.314Z,13.99
2023-01-21T10:26:55.515Z,14.03
2023-01-21T10:28:31.839Z,14.04
2023-01-21T10:30:10.585Z,14.10
2023-01-21T10:31:48.197Z,14.11
2023-01-21T10:33:24.105Z,14.06
2023-01-21T10:34:58.073Z,14.11
2023-01-21T10:36:57.909Z,14.13
2023-01-21T10:38:39.755Z,14.14
2023-01-21T10:40:40.732Z,14.14
2023-01-21T10:42:32.669Z,14.21
2023-01-21T10:44:16.713Z,14.22
2023-01-21T10:45:59.253Z,14.18
2023-01-21T10:47:40.231Z,14.12
2023-01-21T10:49:28.604Z,14.10
2023-01-21T10:51:07.435Z,14.20
2023-01-21T10:52:47.515Z,14.26
2023-01-21T10:54:30.893Z,14.20
2023-01-21T10:56:21.431Z,14.10
2023-01-21T10:58:00.044Z,14.12
2023-01-21T10:59:37.222Z,14.10
2023-01-21T11:01:20.439Z,14.10
2023-01-21T11:02:58.113Z,14.00
2023-01-21T11:04:31.490Z,14.02
2023-01-21T11:06:06.992Z,13.97
2023-01-21T11:07:42.921Z,13.98
2023-01-21T11:09:17.290Z,14.04
2023-01-21T11:10:55.397Z,14.02
2023-01-21T11:12:30.771Z,13.94
2023-01-21T11:14:04.421Z,14.02
2023-01-21T11:15:38.079Z,14.06
2023-01-21T11:17:11.448Z,13.96
2023-01-21T11:18:44.617Z,13.91
2023-01-21T11:20:23.526Z,13.99
2023-01-21T11:22:04.124Z,14.04
2023-01-21T11:23:39.284Z,14.10
2023-01-21T11:25:28.439Z,14.11
2023-01-21T11:27:02.866Z,14.13
2023-01-21T11:28:37.698Z,14.13
2023-01-21T11:30:48.745Z,14.12
2023-01-21T11:32:24.982Z,14.20
2023-01-21T11:34:07.069Z,14.25
2023-01-21T11:35:40.585Z,14.32
2023-01-21T11:37:24.166Z,14.31
2023-01-21T11:39:02.629Z,14.40
2023-01-21T11:40:36.139Z,14.41
2023-01-21T11:42:16.331Z,14.39
2023-01-21T11:43:53.212Z,14.26
2023-01-21T11:45:30.232Z,14.19
2023-01-21T11:47:03.587Z,14.25
2023-01-21T11:48:35.776Z,14.31
2023-01-21T11:50:17.452Z,14.36
2023-01-21T11:51:51.700Z,14.41
2023-01-21T11:53:30.023Z,14.44
2023-01-21T11:55:04.806Z,14.39
2023-01-21T11:56:38.381Z,14.43
2023-01-21T11:58:20.133Z,14.33
2023-01-21T11:59:58.814Z,14.33
2023-01-21T12:01:32.117Z,14.35
2023-01-21T12:03:07.347Z,14.36
2023-01-21T12:04:46.637Z,14.23
2023-01-21T12:06:22.503Z,14.16
2023-01-21T12:07:57.294Z,14.09
2023-01-21T12:09:30.843Z,13.96
2023-01-21T12:11:07.722Z,13.91
2023-01-21T12:12:55.426Z,13.83
2023-01-21T12:14:36.023Z,13.75
2023-01-21T12:16:33.878Z,13.72
2023-01-21T12:18:22.376Z,13.73
2023-01-21T12:20:11.917Z,13.72
2023-01-21T12:22:00.994Z,13.66
2023-01-21T12:23:52.048Z,13.69
2023-01-21T12:25:38.362Z,13.76
2023-01-21T12:27:21.586Z,13.83
2023-01-21T12:29:09.975Z,13.93
2023-01-21T12:30:53.085Z,14.00
2023-01-21T12:32:32.828Z,14.16
2023-01-21T12:34:11.840Z,14.18
2023-01-21T12:35:50.544Z,14.29
2023-01-21T12:37:29.760Z,14.30
2023-01-21T12:39:22.299Z,14.23
2023-01-21T12:41:01.292Z,14.11
2023-01-21T12:42:40.442Z,14.05
2023-01-21T12:44:24.947Z,14.08
2023-01-21T12:46:04.508Z,14.08
2023-01-21T12:47:44.833Z,14.16
2023-01-21T12:49:24.020Z,14.24
2023-01-21T12:51:00.310Z,14.26
2023-01-21T12:52:43.355Z,14.29
2023-01-21T12:54:24.928Z,14.26
2023-01-21T12:56:09.624Z,14.30
2023-01-21T12:57:49.852Z,14.27
2023-01-21T12:59:29.912Z,14.38
2023-01-21T13:01:10.628Z,14.36
2023-01-21T13:02:53.748Z,14.40
2023-01-21T13:04:43.683Z,14.42
2023-01-21T13:06:29.510Z,14.44
2023-01-21T13:08:28.863Z,14.42
2023-01-21T13:10:13.577Z,14.42
2023-01-21T13:11:53.808Z,14.35
2023-01-21T13:13:31.574Z,14.40
2023-01-21T13:15:15.816Z,14.37
2023-01-21T13:16:53.970Z,14.40
2023-01-21T13:18:33.875Z,14.50
2023-01-21T13:20:15.994Z,14.40
2023-01-21T13:21:56.041Z,14.48
2023-01-21T13:23:38.721Z,14.56
2023-01-21T13:25:28.808Z,14.53
2023-01-21T13:27:12.557Z,14.57
2023-01-21T13:28:50.965Z,14.58
2023-01-21T13:30:31.665Z,14.60
2023-01-21T13:32:36.359Z,14.57
2023-01-21T13:34:19.801Z,14.61
2023-01-21T13:36:06.541Z,14.59
2023-01-21T13:37:48.424Z,14.52
2023-01-21T13:39:30.316Z,14.53
2023-01-21T13:41:14.220Z,14.60
2023-01-21T13:42:57.778Z,14.69
2023-01-21T13:44:55.906Z,14.74
2023-01-21T13:46:49.814Z,14.70
2023-01-21T13:48:40.850Z,14.73
2023-01-21T13:50:25.815Z,14.76
2023-01-21T13:52:08.004Z,14.74
2023-01-21T13:53:58.624Z,14.73
2023-01-21T13:55:45.970Z,14.75
2023-01-21T13:57:35.619Z,14.67
2023-01-21T13:59:15.176Z,14.66
2023-01-21T14:00:54.741Z,14.67
2023-01-21T14:02:35.031Z,14.61
2023-01-21T14:04:14.675Z,14.54
2023-01-21T14:05:53.177Z,14.46
2023-01-21T14:07:30.381Z,14.42
2023-01-21T14:09:07.274Z,14.46
2023-01-21T14:10:47.082Z,14.48
2023-01-21T14:12:29.272Z,14.44
2023-01-21T14:14:34.671Z,14.42
2023-01-21T14:16:36.351Z,14.36
2023-01-21T14:18:28.119Z,14.29
2023-01-21T14:20:20.821Z,14.27
2023-01-21T14:22:11.655Z,14.21
2023-01-21T14:24:05.271Z,14.16
2023-01-21T14:25:55.893Z,14.15
2023-01-21T14:27:38.963Z,14.17
2023-01-21T14:29:19.553Z,14.14
2023-01-21T14:31:02.682Z,14.16
2023-01-21T14:32:42.560Z,14.14
2023-01-21T14:34:19.297Z,14.17
2023-01-21T14:36:02.842Z,14.17
2023-01-21T14:37:44.052Z,14.25
2023-01-21T14:39:33.043Z,14.24
2023-01-21T14:41:08.002Z,14.23
2023-01-21T14:42:43.976Z,14.22
2023-01-21T14:44:37.639Z,14.24
2023-01-21T14:46:28.767Z,14.27
2023-01-21T14:48:02.149Z,14.24
2023-01-21T14:49:43.308Z,14.19
2023-01-21T14:51:23.096Z,14.19
2023-01-21T14:52:57.802Z,14.15
2023-01-21T14:54:31.185Z,14.11
2023-01-21T14:56:12.470Z,14.07
2023-01-21T14:57:46.853Z,14.12
2023-01-21T14:59:34.632Z,14.11
2023-01-21T15:01:25.517Z,14.11
2023-01-21T15:03:16.436Z,14.11
2023-01-21T15:04:55.655Z,14.13
2023-01-21T15:06:29.303Z,14.12
2023-01-21T15:08:09.701Z,14.04
2023-01-21T15:09:47.923Z,14.07
2023-01-21T15:11:23.204Z,14.05
2023-01-21T15:12:59.833Z,14.02
2023-01-21T15:14:37.165Z,14.03
2023-01-21T15:16:17.337Z,14.00
2023-01-21T15:18:05.171Z,14.02
2023-01-21T15:19:38.342Z,14.03
2023-01-21T15:21:38.476Z,14.02
2023-01-21T15:23:21.491Z,14.04
2023-01-21T15:25:20.960Z,14.04
2023-01-21T15:27:19.962Z,13.98
2023-01-21T15:28:56.404Z,14.00
2023-01-21T15:30:47.788Z,14.05
2023-01-21T15:32:32.414Z,14.10
2023-01-21T15:34:14.729Z,14.11
2023-01-21T15:35:48.092Z,14.11
2023-01-21T15:37:24.465Z,14.12
2023-01-21T15:39:02.788Z,14.04
2023-01-21T15:40:39.251Z,14.04
2023-01-21T15:42:23.355Z,14.04
2023-01-21T15:44:09.467Z,14.05
2023-01-21T15:45:50.996Z,14.05
2023-01-21T15:47:42.021Z,14.06
2023-01-21T15:49:37.400Z,14.10
2023-01-21T15:51:21.246Z,14.11
2023-01-21T15:53:06.975Z,14.14
2023-01-21T15:54:51.136Z,14.15
2023-01-21T15:56:38.207Z,14.15
2023-01-21T15:58:24.124Z,14.13
2023-01-21T16:00:13.568Z,14.15
2023-01-21T16:02:02.448Z,14.12
2023-01-21T16:03:42.919Z,14.22
2023-01-21T16:05:29.010Z,14.21
2023-01-21T16:07:20.659Z,14.21
2023-01-21T16:09:04.638Z,14.19
2023-01-21T16:10:55.552Z,14.21
2023-01-21T16:12:38.007Z,14.19
2023-01-21T16:14:26.697Z,14.18
2023-01-21T16:16:11.725Z,14.17
2023-01-21T16:18:00.655Z,14.20
2023-01-21T16:19:37.852Z,14.23
2023-01-21T16:21:12.832Z,14.25
2023-01-21T16:22:50.175Z,14.25
2023-01-21T16:24:28.464Z,14.23
2023-01-21T16:26:04.147Z,14.20
2023-01-21T16:27:37.269Z,14.19
2023-01-21T16:29:13.265Z,14.20
2023-01-21T16:30:55.598Z,14.20
2023-01-21T16:32:31.023Z,14.18
2023-01-21T16:34:04.198Z,14.21
2023-01-21T16:35:46.256Z,14.19
2023-01-21T16:37:21.561Z,14.19
2023-01-21T16:38:54.668Z,14.18
2023-01-21T16:40:30.721Z,14.19
2023-01-21T16:42:07.645Z,14.19
2023-01-21T16:43:47.183Z,14.14
2023-01-21T16:45:23.584Z,14.08
2023-01-21T16:46:57.204Z,14.08
2023-01-21T16:48:33.443Z,14.04
2023-01-21T16:50:20.358Z,13.98
2023-01-21T16:51:58.142Z,13.91
2023-01-21T16:53:31.447Z,13.85
2023-01-21T16:55:19.050Z,13.83
2023-01-21T16:56:56.696Z,13.80
2023-01-21T16:58:33.366Z,13.75
2023-01-21T17:00:23.649Z,13.69
2023-01-21T17:01:59.807Z,13.65
2023-01-21T17:03:33.768Z,13.58
2023-01-21T17:05:08.324Z,13.55
2023-01-21T17:06:44.164Z,13.54
2023-01-21T17:08:17.826Z,13.52
2023-01-21T17:09:57.925Z,13.52
2023-01-21T17:11:31.514Z,13.54
2023-01-21T17:13:07.360Z,13.59
2023-01-21T17:14:42.345Z,13.61
2023-01-21T17:16:24.901Z,13.66
2023-01-21T17:18:01.537Z,13.68
2023-01-21T17:19:37.808Z,13.76
2023-01-21T17:21:15.798Z,13.84
2023-01-21T17:22:49.187Z,13.91
2023-01-21T17:24:26.747Z,13.95
2023-01-21T17:26:04.952Z,13.97
2023-01-21T17:27:43.750Z,14.05
2023-01-21T17:29:21.635Z,14.08
2023-01-21T17:31:10.004Z,14.07
2023-01-21T17:32:43.477Z,14.11
2023-01-21T17:34:23.237Z,14.11
2023-01-21T17:36:13.368Z,14.11
2023-01-21T17:37:54.826Z,14.13
2023-01-21T17:40:01.292Z,14.12
2023-01-21T17:41:38.064Z,14.12
2023-01-21T17:43:20.719Z,14.09
2023-01-21T17:44:57.917Z,14.06
2023-01-21T17:46:33.682Z,14.00
2023-01-21T17:48:11.710Z,13.93
2023-01-21T17:49:47.194Z,13.92
2023-01-21T17:51:23.507Z,13.92
2023-01-21T17:52:59.729Z,13.88
2023-01-21T17:54:33.146Z,13.86
2023-01-21T17:56:08.751Z,13.82
2023-01-21T17:57:42.391Z,13.79
2023-01-21T17:59:28.032Z,13.69
2023-01-21T18:01:03.020Z,13.72
2023-01-21T18:02:37.787Z,13.74
2023-01-21T18:04:10.950Z,13.75
2023-01-21T18:05:45.014Z,13.77
2023-01-21T18:07:23.605Z,13.77
2023-01-21T18:08:58.653Z,13.77
2023-01-21T18:10:32.143Z,13.83
2023-01-21T18:12:06.429Z,13.87
2023-01-21T18:13:41.483Z,13.90
2023-01-21T18:15:16.122Z,13.91
2023-01-21T18:16:50.201Z,13.89
2023-01-21T18:18:28.846Z,13.95
2023-01-21T18:20:02.088Z,13.98
2023-01-21T18:21:35.639Z,14.01
2023-01-21T18:23:12.222Z,14.00
2023-01-21T18:24:45.559Z,13.94
2023-01-21T18:26:26.753Z,13.97
2023-01-21T18:28:00.219Z,14.00
2023-01-21T18:29:33.580Z,13.98
2023-01-21T18:31:09.637Z,14.02
2023-01-21T18:32:43.057Z,14.02
2023-01-21T18:34:17.980Z,14.04
2023-01-21T18:35:52.650Z,14.03
2023-01-21T18:37:26.596Z,14.06
2023-01-21T18:39:00.102Z,14.11
2023-01-21T18:40:33.541Z,14.14
2023-01-21T18:42:06.948Z,14.16
2023-01-21T18:43:40.239Z,14.15
2023-01-21T18:45:18.733Z,14.19
2023-01-21T18:46:52.319Z,14.21
2023-01-21T18:48:30.219Z,14.24
2023-01-21T18:50:05.537Z,14.27
2023-01-21T18:51:39.138Z,14.30
2023-01-21T18:53:14.305Z,14.27
2023-01-21T18:54:47.863Z,14.19
2023-01-21T18:56:22.130Z,14.30
2023-01-21T18:57:56.989Z,14.29
2023-01-21T18:59:30.394Z,14.31
2023-01-21T19:01:10.959Z,14.32
2023-01-21T19:02:55.963Z,14.34
2023-01-21T19:04:29.318Z,14.35
2023-01-21T19:06:04.269Z,14.34
2023-01-21T19:07:37.483Z,14.35
2023-01-21T19:09:20.601Z,14.38
2023-01-21T19:10:54.218Z,14.34
2023-01-21T19:12:28.011Z,14.38
2023-01-21T19:14:02.060Z,14.44
2023-01-21T19:15:35.271Z,14.39
2023-01-21T19:17:12.946Z,14.41
2023-01-21T19:18:46.824Z,14.42
2023-01-21T19:20:22.445Z,14.35
2023-01-21T19:21:57.269Z,14.36
2023-01-21T19:23:30.602Z,14.34
2023-01-21T19:25:04.623Z,14.30
2023-01-21T19:26:40.050Z,14.26
2023-01-21T19:28:13.959Z,14.24
2023-01-21T19:29:47.639Z,14.22
2023-01-21T19:31:21.828Z,14.18
2023-01-21T19:32:56.483Z,14.21
2023-01-21T19:34:30.239Z,14.23
2023-01-21T19:36:06.199Z,14.27
2023-01-21T19:37:41.954Z,14.31
2023-01-21T19:39:17.726Z,14.29
2023-01-21T19:40:51.796Z,14.30
2023-01-21T19:42:25.278Z,14.32
2023-01-21T19:43:59.182Z,14.36
2023-01-21T19:45:32.822Z,14.37
2023-01-21T19:47:08.028Z,14.37
2023-01-21T19:48:42.428Z,14.39
2023-01-21T19:50:18.134Z,14.36
2023-01-21T19:51:51.681Z,14.35
2023-01-21T19:53:26.392Z,14.34
2023-01-21T19:54:59.565Z,14.30
2023-01-21T19:56:36.759Z,14.29
2023-01-21T19:58:18.047Z,14.26
2023-01-21T19:59:54.133Z,14.24
2023-01-21T20:01:27.786Z,14.23
2023-01-21T20:03:01.493Z,14.23
2023-01-21T20:04:34.679Z,14.24
2023-01-21T20:06:11.460Z,14.19
2023-01-21T20:07:45.870Z,14.18
2023-01-21T20:09:20.860Z,14.18
2023-01-21T20:10:54.220Z,14.20
2023-01-21T20:12:27.633Z,14.23
2023-01-21T20:14:01.983Z,14.21
2023-01-21T20:15:35.489Z,14.22
2023-01-21T20:17:14.144Z,14.18
2023-01-21T20:18:48.539Z,14.12
2023-01-21T20:20:24.183Z,14.13
2023-01-21T20:22:02.706Z,14.15
2023-01-21T20:23:36.481Z,14.14
2023-01-21T20:25:14.667Z,14.13
2023-01-21T20:28:24.667Z,14.11
2023-01-21T20:30:14.241Z,14.08
2023-01-21T20:31:48.706Z,14.07
2023-01-21T20:33:23.646Z,14.09
2023-01-21T20:34:56.925Z,14.10
2023-01-21T20:36:30.191Z,14.10
2023-01-21T20:38:03.930Z,14.04
2023-01-21T20:39:37.103Z,14.07
2023-01-21T20:41:13.579Z,14.05
2023-01-21T20:42:46.877Z,14.06
2023-01-21T20:44:20.410Z,14.07
2023-01-21T20:45:54.390Z,14.04
2023-01-21T20:47:38.042Z,14.04
2023-01-21T20:49:12.727Z,14.01
2023-01-21T20:50:46.069Z,14.02
2023-01-21T20:52:19.693Z,14.03
2023-01-21T20:53:53.098Z,14.00
2023-01-21T20:55:27.610Z,14.01
2023-01-21T20:57:04.007Z,14.00
2023-01-21T20:58:37.323Z,14.00
2023-01-21T21:00:16.791Z,13.99
2023-01-21T21:01:51.523Z,14.00
2023-01-21T21:03:25.053Z,14.00
2023-01-21T21:04:58.273Z,13.99
2023-01-21T21:06:32.433Z,13.97
2023-01-21T21:08:05.949Z,13.98
2023-01-21T21:09:39.915Z,13.97
2023-01-21T21:11:15.406Z,13.98
2023-01-21T21:12:50.728Z,13.96
2023-01-21T21:14:23.785Z,13.92
2023-01-21T21:15:57.379Z,13.88
2023-01-21T21:17:30.493Z,13.85